createdAt,value
2022-08-18T00:01:05.733Z,16.10
2022-08-18T00:03:57.392Z,16.95
2022-08-18T00:06:19.740Z,22.10
2022-08-18T00:08:46.283Z,31.60
2022-08-18T00:11:12.820Z,33.25
2022-08-18T00:13:39.338Z,33.38
2022-08-18T00:16:06.130Z,29.60
2022-08-18T00:18:32.667Z,35.97
2022-08-18T00:20:59.269Z,36.20
2022-08-18T00:23:25.764Z,38.25
2022-08-18T00:25:52.395Z,36.85
2022-08-18T00:28:19.398Z,36.85
2022-08-18T00:30:52.511Z,34.55
2022-08-18T00:35:50.906Z,33.95
2022-08-18T00:38:24.400Z,31.50
2022-08-18T00:40:53.494Z,33.38
2022-08-18T00:43:27.828Z,34.25
2022-08-18T00:45:54.592Z,34.55
2022-08-18T00:48:23.929Z,35.42
2022-08-18T00:50:55.553Z,32.83
2022-08-18T00:53:22.016Z,20.48
2022-08-18T00:55:53.742Z,29.75
2022-08-18T00:58:28.163Z,22.52
2022-08-18T01:00:55.072Z,20.92
2022-08-18T01:03:24.626Z,22.33
2022-08-18T01:08:41.050Z,22.42
2022-08-18T01:11:10.571Z,24.90
2022-08-18T01:13:41.169Z,34.25
2022-08-18T01:16:27.369Z,24.42
2022-08-18T01:19:12.764Z,21.55
2022-08-18T01:21:51.114Z,31.63
2022-08-18T01:24:47.835Z,32.42
2022-08-18T01:27:18.230Z,24.65
2022-08-18T01:29:46.196Z,34.72
2022-08-18T01:32:19.743Z,32.95
2022-08-18T01:34:48.751Z,29.85
2022-08-18T01:37:21.685Z,36.22
2022-08-18T01:41:25.075Z,35.22
2022-08-18T01:42:36.514Z,27.13
2022-08-18T01:45:05.758Z,39.92
2022-08-18T01:47:48.001Z,38.35
2022-08-18T01:50:16.597Z,33.90
2022-08-18T01:52:43.609Z,39.53
2022-08-18T01:55:10.528Z,25.23
2022-08-18T01:57:44.991Z,37.22
2022-08-18T02:00:16.703Z,41.65
2022-08-18T02:02:43.830Z,44.20
2022-08-18T02:05:15.053Z,33.55
2022-08-18T02:07:42.643Z,31.55
2022-08-18T02:10:12.506Z,25.55
2022-08-18T02:12:43.429Z,38.97
2022-08-18T02:15:11.001Z,24.40
2022-08-18T02:17:39.802Z,26.17
2022-08-18T02:20:09.428Z,28.23
2022-08-18T02:22:36.153Z,26.10
2022-08-18T02:25:03.617Z,38.40
2022-08-18T02:27:30.399Z,32.42
2022-08-18T02:30:00.251Z,30.23
2022-08-18T02:32:27.179Z,32.95
2022-08-18T02:34:56.087Z,25.92
2022-08-18T02:37:23.017Z,37.45
2022-08-18T02:39:50.159Z,32.70
2022-08-18T02:42:17.494Z,36.97
2022-08-18T02:44:44.613Z,41.17
2022-08-18T02:47:11.237Z,41.55
2022-08-18T02:49:37.856Z,35.03
2022-08-18T02:52:04.698Z,42.15
2022-08-18T02:54:31.289Z,28.13
2022-08-18T02:56:57.996Z,34.05
2022-08-18T02:59:27.727Z,37.55
2022-08-18T03:01:56.157Z,31.52
2022-08-18T03:04:29.852Z,32.28
2022-08-18T03:07:00.604Z,45.63
2022-08-18T03:11:54.608Z,37.85
2022-08-18T03:14:21.207Z,30.55
2022-08-18T03:16:54.760Z,29.00
2022-08-18T03:19:29.573Z,27.73
2022-08-18T03:21:59.419Z,43.13
2022-08-18T03:24:31.495Z,33.75
2022-08-18T03:26:59.569Z,43.45
2022-08-18T03:29:31.711Z,39.63
2022-08-18T03:31:59.436Z,34.95
2022-08-18T03:34:26.106Z,43.90
2022-08-18T03:36:53.634Z,29.63
2022-08-18T03:39:23.591Z,38.83
2022-08-18T03:42:00.180Z,36.65
2022-08-18T03:44:30.816Z,42.15
2022-08-18T03:46:58.034Z,31.13
2022-08-18T03:49:26.024Z,28.23
2022-08-18T03:51:52.613Z,30.33
2022-08-18T03:54:19.296Z,37.90
2022-08-18T03:56:47.426Z,35.28
2022-08-18T03:59:23.955Z,34.17
2022-08-18T04:01:52.535Z,31.08
2022-08-18T04:04:23.143Z,31.45
2022-08-18T04:06:57.072Z,30.15
2022-08-18T04:09:27.473Z,33.05
2022-08-18T04:11:54.985Z,29.67
2022-08-18T04:14:24.944Z,31.92
2022-08-18T04:16:52.089Z,26.50
2022-08-18T04:19:26.347Z,23.95
2022-08-18T04:21:54.152Z,33.50
2022-08-18T04:24:21.182Z,26.73
2022-08-18T04:26:48.447Z,23.75
2022-08-18T04:29:17.600Z,32.45
2022-08-18T04:31:44.616Z,25.25
2022-08-18T04:34:12.242Z,26.83
2022-08-18T04:36:38.887Z,22.15
2022-08-18T04:39:08.703Z,25.92
2022-08-18T04:41:36.646Z,32.25
2022-08-18T04:44:05.878Z,29.23
2022-08-18T04:46:37.217Z,35.08
2022-08-18T04:49:03.964Z,36.83
2022-08-18T04:52:34.470Z,38.45
2022-08-18T04:54:17.069Z,34.97
2022-08-18T04:56:43.669Z,36.58
2022-08-18T04:59:14.400Z,24.13
2022-08-18T05:01:47.570Z,32.97
2022-08-18T05:04:17.184Z,37.15
2022-08-18T05:06:45.139Z,36.90
2022-08-18T05:09:16.299Z,36.45
2022-08-18T05:11:46.817Z,38.63
2022-08-18T05:14:13.300Z,39.42
2022-08-18T05:16:44.282Z,37.03
2022-08-18T05:19:22.133Z,38.35
2022-08-18T05:21:51.337Z,38.53
2022-08-18T05:24:19.167Z,38.38
2022-08-18T05:26:46.101Z,38.50
2022-08-18T05:29:18.441Z,38.25
2022-08-18T05:31:46.363Z,39.03
2022-08-18T05:34:12.978Z,39.05
2022-08-18T05:36:53.012Z,38.13
2022-08-18T05:39:19.445Z,38.97
2022-08-18T05:42:00.338Z,40.13
2022-08-18T05:44:30.561Z,39.83
2022-08-18T05:47:04.843Z,38.20
2022-08-18T05:49:31.684Z,36.72
2022-08-18T05:52:03.112Z,37.00
2022-08-18T05:55:00.014Z,38.17
2022-08-18T05:57:31.265Z,32.83
2022-08-18T05:59:58.211Z,33.38
2022-08-18T06:02:34.087Z,35.17
2022-08-18T06:05:06.810Z,24.38
2022-08-18T06:07:42.773Z,29.58
2022-08-18T06:10:11.924Z,33.55
2022-08-18T06:12:49.406Z,23.58
2022-08-18T06:15:42.430Z,28.88
2022-08-18T06:18:12.784Z,24.08
2022-08-18T06:20:42.241Z,29.77
2022-08-18T06:23:57.345Z,27.67
2022-08-18T06:26:23.900Z,27.02
2022-08-18T06:29:11.180Z,30.40
2022-08-18T06:31:49.571Z,25.40
2022-08-18T06:34:40.793Z,23.77
2022-08-18T06:37:16.559Z,29.98
2022-08-18T06:39:49.290Z,32.67
2022-08-18T06:42:25.884Z,25.92
2022-08-18T06:44:57.234Z,25.65
2022-08-18T06:47:49.507Z,26.20
2022-08-18T06:50:28.246Z,26.08
2022-08-18T06:52:56.351Z,19.33
2022-08-18T06:55:45.419Z,19.30
2022-08-18T06:58:20.713Z,23.60
2022-08-18T07:00:50.358Z,23.67
2022-08-18T07:03:23.133Z,19.63
2022-08-18T07:06:30.254Z,29.20
2022-08-18T07:09:24.868Z,19.52
2022-08-18T07:12:07.699Z,21.17
2022-08-18T07:14:47.271Z,30.08
2022-08-18T07:17:22.297Z,23.52
2022-08-18T07:22:56.604Z,23.67
2022-08-18T07:25:32.015Z,25.73
2022-08-18T07:28:01.788Z,25.10
2022-08-18T07:30:36.533Z,23.27
2022-08-18T07:33:13.829Z,22.92
2022-08-18T07:35:49.450Z,24.70
2022-08-18T07:38:57.097Z,25.95
2022-08-18T07:41:33.281Z,17.75
2022-08-18T07:44:13.796Z,28.10
2022-08-18T07:47:12.620Z,27.13
2022-08-18T07:49:59.697Z,28.67
2022-08-18T07:52:46.871Z,24.90
2022-08-18T07:55:30.715Z,22.20
2022-08-18T07:58:29.715Z,21.13
2022-08-18T08:01:18.785Z,21.75
2022-08-18T08:04:39.697Z,19.15
2022-08-18T08:07:24.517Z,20.92
2022-08-18T08:09:57.368Z,28.40
2022-08-18T08:12:48.435Z,20.67
2022-08-18T08:15:40.007Z,16.77
2022-08-18T08:18:21.534Z,25.67
2022-08-18T08:20:51.065Z,20.63
2022-08-18T08:23:45.400Z,20.52
2022-08-18T08:26:21.641Z,26.58
2022-08-18T08:29:31.340Z,22.88
2022-08-18T08:32:01.583Z,17.00
2022-08-18T08:37:02.619Z,16.65
2022-08-18T08:39:51.877Z,20.02
2022-08-18T08:42:40.466Z,17.25
2022-08-18T08:45:13.710Z,21.27
2022-08-18T08:47:40.189Z,22.27
2022-08-18T08:50:13.694Z,15.38
2022-08-18T08:53:02.728Z,20.92
2022-08-18T08:55:37.189Z,16.58
2022-08-18T08:58:31.563Z,15.60
2022-08-18T09:00:58.475Z,14.65
2022-08-18T09:03:37.118Z,16.00
2022-08-18T09:06:09.159Z,18.60
2022-08-18T09:08:42.814Z,11.07
2022-08-18T09:11:26.708Z,10.48
2022-08-18T09:13:53.291Z,12.57
2022-08-18T09:16:59.434Z,9.57
2022-08-18T09:19:58.734Z,12.15
2022-08-18T09:22:48.689Z,12.38
2022-08-18T09:25:34.086Z,11.73
2022-08-18T09:28:42.419Z,10.60
2022-08-18T09:31:09.250Z,10.77
2022-08-18T09:33:42.026Z,10.55
2022-08-18T09:36:36.276Z,7.53
2022-08-18T09:39:53.166Z,9.23
2022-08-18T09:42:48.347Z,6.78
2022-08-18T09:45:47.018Z,8.18
2022-08-18T09:48:20.695Z,7.70
2022-08-18T09:50:55.170Z,8.05
2022-08-18T09:53:45.992Z,6.43
2022-08-18T09:59:09.852Z,8.35
2022-08-18T10:01:40.123Z,9.35
2022-08-18T10:04:29.027Z,8.82
2022-08-18T10:07:17.299Z,7.03
2022-08-18T10:13:17.625Z,6.47
2022-08-18T10:16:25.942Z,8.95
2022-08-18T10:19:27.610Z,8.68
2022-08-18T10:22:09.003Z,9.13
2022-08-18T10:24:53.840Z,6.97
2022-08-18T10:27:46.394Z,8.25
2022-08-18T10:31:06.400Z,6.40
2022-08-18T10:36:59.957Z,8.55
2022-08-18T10:39:41.173Z,6.53
2022-08-18T10:42:31.418Z,6.45
2022-08-18T10:45:30.639Z,8.40
2022-08-18T10:48:24.462Z,6.25
2022-08-18T10:51:11.639Z,6.22
2022-08-18T10:53:49.629Z,5.85
2022-08-18T10:56:41.084Z,8.38
2022-08-18T10:59:29.358Z,6.57
2022-08-18T11:01:59.559Z,6.80
2022-08-18T11:04:32.936Z,6.00
2022-08-18T11:07:09.933Z,6.07
2022-08-18T11:09:41.621Z,6.35
2022-08-18T11:12:11.446Z,6.80
2022-08-18T11:14:57.392Z,7.00
2022-08-18T11:17:36.154Z,5.78
2022-08-18T11:20:11.281Z,6.82
2022-08-18T11:22:37.901Z,6.22
2022-08-18T11:25:20.414Z,7.50
2022-08-18T11:27:48.533Z,5.40
2022-08-18T11:30:15.605Z,5.03
2022-08-18T11:32:52.048Z,5.70
2022-08-18T11:35:29.483Z,5.18
2022-08-18T11:38:12.271Z,4.40
2022-08-18T11:41:09.550Z,5.57
2022-08-18T11:43:38.923Z,4.72
2022-08-18T11:46:28.127Z,4.80
2022-08-18T11:49:00.051Z,4.18
2022-08-18T11:51:29.962Z,3.97
2022-08-18T11:54:21.875Z,4.85
2022-08-18T11:56:50.368Z,5.93
2022-08-18T12:02:17.932Z,5.43
2022-08-18T12:04:44.654Z,4.72
2022-08-18T12:07:20.402Z,5.07
2022-08-18T12:10:16.492Z,4.45
2022-08-18T12:12:48.249Z,4.47
2022-08-18T12:15:23.956Z,4.50
2022-08-18T12:17:52.959Z,5.90
2022-08-18T12:20:20.884Z,5.00
2022-08-18T12:22:49.848Z,3.70
2022-08-18T12:25:24.789Z,4.50
2022-08-18T12:27:52.533Z,4.43
2022-08-18T12:30:19.970Z,4.25
2022-08-18T12:32:50.909Z,4.72
2022-08-18T12:35:28.638Z,3.88
2022-08-18T12:38:00.027Z,4.28
2022-08-18T12:40:30.036Z,5.05
2022-08-18T12:42:56.879Z,5.22
2022-08-18T12:45:26.016Z,4.90
2022-08-18T12:47:54.372Z,4.70
2022-08-18T12:50:20.954Z,6.20
2022-08-18T12:52:58.926Z,4.57
2022-08-18T12:55:26.799Z,4.70
2022-08-18T12:57:53.973Z,4.75
2022-08-18T13:00:27.782Z,4.63
2022-08-18T13:02:55.916Z,4.55
2022-08-18T13:05:27.853Z,5.40
2022-08-18T13:08:00.872Z,4.15
2022-08-18T13:10:43.012Z,4.15
2022-08-18T13:13:18.189Z,5.30
2022-08-18T13:15:58.302Z,6.28
2022-08-18T13:18:27.153Z,6.20
2022-08-18T13:20:57.623Z,5.65
2022-08-18T13:23:25.881Z,6.88
2022-08-18T13:25:59.542Z,6.53
2022-08-18T13:30:57.639Z,6.88
2022-08-18T13:33:53.671Z,8.43
2022-08-18T13:36:11.990Z,7.70
2022-08-18T13:38:40.472Z,9.13
2022-08-18T13:41:15.679Z,8.70
2022-08-18T13:43:44.661Z,8.82
2022-08-18T13:46:18.458Z,7.45
2022-08-18T13:48:46.788Z,8.13
2022-08-18T13:51:21.986Z,6.90
2022-08-18T13:53:58.930Z,6.32
2022-08-18T13:56:36.076Z,6.18
2022-08-18T13:59:04.953Z,5.20
2022-08-18T14:01:44.839Z,4.38
2022-08-18T14:04:20.602Z,4.68
2022-08-18T14:06:56.436Z,4.40
2022-08-18T14:09:28.083Z,4.45
2022-08-18T14:12:21.636Z,4.10
2022-08-18T14:14:52.031Z,4.28
2022-08-18T14:17:19.199Z,4.18
2022-08-18T14:20:04.932Z,3.75
2022-08-18T14:22:55.714Z,3.00
2022-08-18T14:25:41.506Z,2.92
2022-08-18T14:28:09.265Z,3.40
2022-08-18T14:30:39.120Z,3.70
2022-08-18T14:33:11.529Z,3.83
2022-08-18T14:36:06.622Z,3.03
2022-08-18T14:38:25.067Z,3.70
2022-08-18T14:40:51.861Z,3.40
2022-08-18T14:43:25.009Z,3.60
2022-08-18T14:45:53.650Z,2.97
2022-08-18T14:48:27.450Z,2.92
2022-08-18T14:50:56.181Z,2.75
2022-08-18T14:53:28.704Z,3.25
2022-08-18T14:55:56.583Z,3.42
2022-08-18T14:58:28.640Z,3.13
2022-08-18T15:00:57.367Z,3.10
2022-08-18T15:03:30.952Z,3.10
2022-08-18T15:06:00.394Z,3.17
2022-08-18T15:08:27.757Z,2.83
2022-08-18T15:10:56.171Z,2.95
2022-08-18T15:13:26.411Z,2.75
2022-08-18T15:15:53.624Z,2.75
2022-08-18T15:18:22.404Z,3.42
2022-08-18T15:21:10.384Z,2.92
2022-08-18T15:24:05.144Z,3.78
2022-08-18T15:26:45.896Z,3.55
2022-08-18T15:29:12.478Z,3.47
2022-08-18T15:32:01.945Z,3.00
2022-08-18T15:34:28.712Z,3.28
2022-08-18T15:36:56.969Z,3.13
2022-08-18T15:39:25.221Z,3.50
2022-08-18T15:41:53.425Z,3.28
2022-08-18T15:44:22.261Z,3.45
2022-08-18T15:46:51.420Z,4.55
2022-08-18T15:49:21.818Z,3.70
2022-08-18T15:51:50.143Z,3.55
2022-08-18T15:54:19.490Z,3.45
2022-08-18T15:56:46.524Z,3.13
2022-08-18T15:59:26.975Z,3.65
2022-08-18T16:02:01.445Z,3.92
2022-08-18T16:04:27.988Z,3.85
2022-08-18T16:06:56.215Z,2.95
2022-08-18T16:09:22.792Z,3.40
2022-08-18T16:11:50.035Z,3.20
2022-08-18T16:14:16.948Z,3.75
2022-08-18T16:16:43.721Z,3.90
2022-08-18T16:19:10.256Z,3.35
2022-08-18T16:21:39.952Z,2.70
2022-08-18T16:26:33.981Z,3.10
2022-08-18T16:29:02.017Z,4.07
2022-08-18T16:31:29.476Z,3.10
2022-08-18T16:33:57.795Z,2.58
2022-08-18T16:36:27.647Z,4.15
2022-08-18T16:41:26.719Z,3.28
2022-08-18T16:43:53.674Z,2.90
2022-08-18T16:46:26.492Z,4.10
2022-08-18T16:48:57.503Z,3.42
2022-08-18T16:51:26.102Z,3.25
2022-08-18T16:53:54.532Z,4.03
2022-08-18T16:56:24.933Z,4.25
2022-08-18T16:59:10.290Z,3.83
2022-08-18T17:01:56.359Z,3.70
2022-08-18T17:04:28.370Z,4.03
2022-08-18T17:06:56.770Z,3.70
2022-08-18T17:09:24.138Z,3.13
2022-08-18T17:11:52.316Z,3.63
2022-08-18T17:14:21.800Z,2.75
2022-08-18T17:16:53.239Z,4.38
2022-08-18T17:19:20.941Z,4.18
2022-08-18T17:21:47.913Z,3.70
2022-08-18T17:24:14.899Z,3.95
2022-08-18T17:26:53.310Z,3.45
2022-08-18T17:29:27.626Z,4.05
2022-08-18T17:32:00.414Z,3.38
2022-08-18T17:34:41.901Z,3.58
2022-08-18T17:37:12.326Z,3.50
2022-08-18T17:39:44.552Z,3.47
2022-08-18T17:42:26.496Z,3.38
2022-08-18T17:45:04.139Z,3.97
2022-08-18T17:47:56.731Z,2.97
2022-08-18T17:51:05.856Z,3.10
2022-08-18T17:53:34.569Z,2.72
2022-08-18T17:56:17.293Z,3.33
2022-08-18T17:58:58.438Z,2.63
2022-08-18T18:01:27.245Z,3.13
2022-08-18T18:03:53.921Z,3.08
2022-08-18T18:06:39.337Z,3.72
2022-08-18T18:09:28.303Z,2.90
2022-08-18T18:11:55.984Z,2.83
2022-08-18T18:14:40.042Z,3.08
2022-08-18T18:17:14.480Z,3.47
2022-08-18T18:19:43.362Z,3.13
2022-08-18T18:22:19.997Z,3.55
2022-08-18T18:24:55.819Z,3.78
2022-08-18T18:27:26.807Z,3.25
2022-08-18T18:30:19.317Z,3.17
2022-08-18T18:35:54.048Z,3.88
2022-08-18T18:38:46.015Z,4.43
2022-08-18T18:41:12.451Z,4.07
2022-08-18T18:43:42.114Z,3.60
2022-08-18T18:46:23.138Z,3.50
2022-08-18T18:49:22.797Z,3.17
2022-08-18T18:51:54.917Z,5.35
2022-08-18T18:54:43.303Z,3.80
2022-08-18T18:57:33.040Z,3.40
2022-08-18T19:00:19.702Z,3.42
2022-08-18T19:03:05.913Z,3.50
2022-08-18T19:05:38.241Z,3.20
2022-08-18T19:08:19.032Z,3.67
2022-08-18T19:11:07.207Z,3.53
2022-08-18T19:13:44.133Z,3.45
2022-08-18T19:16:23.464Z,3.17
2022-08-18T19:19:36.046Z,3.80
2022-08-18T19:22:04.976Z,4.32
2022-08-18T19:24:38.789Z,4.68
2022-08-18T19:27:12.094Z,3.97
2022-08-18T19:29:43.591Z,3.95
2022-08-18T19:32:17.893Z,4.68
2022-08-18T19:34:51.469Z,3.15
2022-08-18T19:37:31.540Z,3.72
2022-08-18T19:40:24.042Z,3.08
2022-08-18T19:43:12.972Z,2.70
2022-08-18T19:45:59.359Z,3.28
2022-08-18T19:48:39.253Z,3.10
2022-08-18T19:51:13.201Z,3.08
2022-08-18T19:54:04.619Z,3.38
2022-08-18T19:56:34.992Z,3.17
2022-08-18T19:59:18.316Z,3.28
2022-08-18T20:02:10.653Z,3.40
2022-08-18T20:05:03.635Z,3.53
2022-08-18T20:07:55.282Z,3.78
2022-08-18T20:10:28.238Z,3.75
2022-08-18T20:13:07.526Z,3.85
2022-08-18T20:15:34.102Z,3.80
2022-08-18T20:18:19.917Z,3.50
2022-08-18T20:21:15.457Z,3.75
2022-08-18T20:24:05.932Z,3.15
2022-08-18T20:26:35.978Z,3.58
2022-08-18T20:29:02.952Z,3.90
2022-08-18T20:31:52.711Z,3.42
2022-08-18T20:34:25.760Z,3.47
2022-08-18T20:36:53.512Z,4.10
2022-08-18T20:39:46.521Z,3.60
2022-08-18T20:42:22.217Z,3.40
2022-08-18T20:44:48.699Z,3.53
2022-08-18T20:47:46.001Z,3.40
2022-08-18T20:50:31.364Z,3.40
2022-08-18T20:53:09.882Z,3.53
2022-08-18T20:55:48.197Z,3.70
2022-08-18T20:58:25.899Z,3.55
2022-08-18T21:00:57.034Z,3.63
2022-08-18T21:03:35.844Z,3.53
2022-08-18T21:06:03.724Z,3.35
2022-08-18T21:08:33.230Z,3.33
2022-08-18T21:11:04.867Z,3.35
2022-08-18T21:13:40.734Z,3.75
2022-08-18T21:16:10.105Z,3.10
2022-08-18T21:18:37.888Z,3.67
2022-08-18T21:21:11.378Z,3.30
2022-08-18T21:23:41.297Z,4.00
2022-08-18T21:26:16.228Z,3.67
2022-08-18T21:28:47.184Z,3.70
2022-08-18T21:31:43.851Z,3.25
2022-08-18T21:34:11.553Z,4.13
2022-08-18T21:36:49.881Z,3.83
2022-08-18T21:39:19.054Z,4.22
2022-08-18T21:41:54.405Z,4.30
2022-08-18T21:44:26.163Z,3.50
2022-08-18T21:47:06.690Z,3.83
2022-08-18T21:49:33.919Z,4.28
2022-08-18T21:52:00.942Z,4.50
2022-08-18T21:54:34.514Z,4.55
2022-08-18T21:57:23.792Z,3.63
2022-08-18T22:00:20.390Z,4.30
2022-08-18T22:02:49.704Z,4.00
2022-08-18T22:05:26.816Z,4.25
2022-08-18T22:07:53.419Z,4.15
2022-08-18T22:10:46.030Z,3.97
2022-08-18T22:13:44.300Z,4.10
2022-08-18T22:16:31.985Z,4.38
2022-08-18T22:19:11.588Z,4.32
2022-08-18T22:21:49.810Z,3.75
2022-08-18T22:24:22.434Z,4.25
2022-08-18T22:27:12.222Z,4.10
2022-08-18T22:29:59.162Z,4.30
2022-08-18T22:32:26.023Z,5.13
2022-08-18T22:34:53.511Z,5.70
2022-08-18T22:37:23.423Z,5.63
2022-08-18T22:39:54.351Z,5.47
2022-08-18T22:42:24.725Z,4.85
2022-08-18T22:44:51.997Z,4.57
2022-08-18T22:47:18.859Z,6.40
2022-08-18T22:49:46.310Z,6.03
2022-08-18T22:52:22.579Z,5.13
2022-08-18T22:54:57.902Z,4.38
2022-08-18T22:57:25.473Z,5.40
2022-08-18T22:59:54.386Z,4.70
2022-08-18T23:02:22.316Z,4.18
2022-08-18T23:04:48.934Z,4.30
2022-08-18T23:07:15.633Z,4.60
2022-08-18T23:09:42.205Z,4.22
2022-08-18T23:12:13.642Z,4.78
2022-08-18T23:15:36.877Z,4.70
2022-08-18T23:18:06.569Z,4.43
2022-08-18T23:20:33.552Z,3.85
2022-08-18T23:26:45.820Z,4.50
2022-08-18T23:29:14.375Z,4.50
2022-08-18T23:31:43.406Z,4.35
2022-08-18T23:34:13.030Z,4.82
2022-08-18T23:36:45.130Z,5.78
2022-08-18T23:39:12.663Z,4.82
2022-08-18T23:41:39.181Z,4.18
2022-08-18T23:44:06.616Z,5.75
2022-08-18T23:46:34.178Z,4.22
2022-08-18T23:49:03.886Z,5.00
2022-08-18T23:51:34.725Z,5.18
2022-08-18T23:54:06.598Z,5.47
2022-08-18T23:56:35.489Z,5.03
2022-08-18T23:59:04.422Z,4.80
